Time;durP1;ratioP1;P1;durP2;ratioP2;P2;SDS_P1;SDS_P2;PMS_P1;PMS_P2;Temp;Humidity;BMP_temperature;BMP_pressure;BME280_temperature;BME280_humidity;BME280_pressure;Samples;Min_cycle;Max_cycle;Signal;HPM_P1;HPM_P2
2024/03/24 00:01:33;;;;;;;2.47;0.80;;;;;;;6.57;64.96;96008.06;4938749;29;20058;-76
2024/03/24 00:03:59;;;;;;;1.95;0.90;;;;;;;6.53;67.56;96004.19;4938591;29;20054;-76
2024/03/24 00:06:25;;;;;;;1.05;0.68;;;;;;;6.58;66.52;96006.28;4938705;29;20055;-76
2024/03/24 00:08:52;;;;;;;2.85;0.98;;;;;;;6.57;65.90;96000.28;4938671;28;20070;-76
2024/03/24 00:11:18;;;;;;;1.60;0.90;;;;;;;6.57;67.63;96000.28;4938378;29;20554;-76
2024/03/24 00:13:44;;;;;;;1.80;0.98;;;;;;;6.64;68.56;95994.44;4937983;29;20055;-76
2024/03/24 00:16:10;;;;;;;3.78;1.25;;;;;;;6.66;68.18;95987.28;4938277;29;20070;-76
2024/03/24 00:18:38;;;;;;;3.40;1.40;;;;;;;6.72;69.87;95989.19;4938657;29;20059;-76
2024/03/24 00:21:04;;;;;;;1.63;1.02;;;;;;;6.76;69.61;95978.31;4938345;29;20055;-77
2024/03/24 00:23:30;;;;;;;1.77;0.95;;;;;;;6.78;67.00;95978.16;4938477;28;20412;-77
2024/03/24 00:25:56;;;;;;;1.90;0.80;;;;;;;6.69;68.13;95969.63;4937920;29;20059;-76
2024/03/24 00:28:23;;;;;;;1.95;0.80;;;;;;;6.71;69.84;95964.25;4938479;29;20066;-76
2024/03/24 00:30:48;;;;;;;1.13;0.88;;;;;;;6.73;67.75;95963.09;4938103;29;20063;-76
2024/03/24 00:33:15;;;;;;;3.85;1.02;;;;;;;6.64;66.86;95955.56;4938137;29;20090;-76
2024/03/24 00:35:42;;;;;;;0.65;0.65;;;;;;;6.55;65.94;95955.59;4937732;29;20051;-76
2024/03/24 00:38:09;;;;;;;1.27;0.73;;;;;;;6.52;66.51;95949.97;4937897;29;20074;-76
2024/03/24 00:40:34;;;;;;;10.63;5.10;;;;;;;6.46;65.86;95943.69;4938145;29;20058;-77
2024/03/24 00:43:01;;;;;;;5.88;2.63;;;;;;;6.42;66.02;95950.19;4938125;29;20055;-76
2024/03/24 00:45:27;;;;;;;4.00;1.23;;;;;;;6.35;65.74;95954.44;4937774;29;20435;-76
2024/03/24 00:47:55;;;;;;;1.17;0.82;;;;;;;6.31;67.20;95948.78;4937886;29;20063;-77
2024/03/24 00:50:20;;;;;;;1.30;0.90;;;;;;;6.36;66.81;95945.69;4937897;29;20066;-76
2024/03/24 00:52:48;;;;;;;1.00;0.70;;;;;;;6.41;68.62;95943.41;4936955;28;20059;-76
2024/03/24 00:55:14;;;;;;;1.55;0.43;;;;;;;6.48;69.03;95943.53;4937274;29;20055;-76
2024/03/24 00:57:41;;;;;;;5.35;0.90;;;;;;;6.50;68.24;95937.19;4937412;29;20058;-76
2024/03/24 01:00:07;;;;;;;2.85;1.30;;;;;;;6.45;67.08;95936.91;4937738;29;20063;-76
2024/03/24 01:02:33;;;;;;;2.33;1.05;;;;;;;6.44;68.19;95932.69;4937742;29;20059;-76
2024/03/24 01:05:00;;;;;;;1.67;0.82;;;;;;;6.45;68.57;95934.31;4937547;29;20067;-76
2024/03/24 01:07:29;;;;;;;1.23;0.70;;;;;;;6.38;68.20;95933.38;4937193;29;20055;-77
2024/03/24 01:09:56;;;;;;;1.63;0.70;;;;;;;6.31;68.08;95929.84;4937339;29;20507;-76
2024/03/24 01:12:24;;;;;;;0.70;0.40;;;;;;;6.32;68.52;95928.88;4937439;29;20066;-76
2024/03/24 01:14:50;;;;;;;2.03;0.60;;;;;;;6.38;68.88;95933.38;4933905;29;20051;-76
2024/03/24 01:17:17;;;;;;;1.00;0.52;;;;;;;6.40;68.58;95923.63;4935467;29;20427;-77
2024/03/24 01:19:42;;;;;;;2.63;0.73;;;;;;;6.47;69.20;95921.16;4956695;29;20051;-77
2024/03/24 01:22:09;;;;;;;4.07;1.52;;;;;;;6.55;70.01;95915.94;4957605;29;20066;-76
2024/03/24 01:24:35;;;;;;;1.38;0.60;;;;;;;6.60;69.34;95914.44;4956815;29;20038;-76
2024/03/24 01:27:03;;;;;;;0.50;0.15;;;;;;;6.62;67.87;95909.06;4939328;29;20055;-76
2024/03/24 01:29:28;;;;;;;0.70;0.30;;;;;;;6.62;67.23;95900.50;4934716;29;20527;-76
2024/03/24 01:31:55;;;;;;;2.63;0.60;;;;;;;6.60;68.21;95893.72;4934728;29;20063;-76
2024/03/24 01:34:21;;;;;;;1.05;0.32;;;;;;;6.65;68.92;95907.91;4934106;29;20400;-76
2024/03/24 01:36:48;;;;;;;2.15;0.70;;;;;;;6.64;68.65;95895.94;4934153;29;20100;-76
2024/03/24 01:39:14;;;;;;;2.30;1.00;;;;;;;6.54;66.93;95897.00;4934047;29;20059;-76
2024/03/24 01:41:40;;;;;;;1.27;0.50;;;;;;;6.43;68.15;95884.47;4934077;29;20149;-76
2024/03/24 01:44:07;;;;;;;0.30;0.30;;;;;;;6.28;67.35;95891.38;4933974;29;20048;-76
2024/03/24 01:46:35;;;;;;;1.10;0.30;;;;;;;6.18;68.00;95881.22;4933558;29;20066;-76
2024/03/24 01:49:01;;;;;;;1.98;1.00;;;;;;;6.13;67.84;95878.34;4933945;29;20055;-76
2024/03/24 01:51:28;;;;;;;4.50;2.20;;;;;;;6.05;67.72;95879.19;4933948;29;20056;-76
2024/03/24 01:53:54;;;;;;;3.45;1.08;;;;;;;5.98;67.74;95873.88;4933757;29;20063;-76
2024/03/24 01:56:21;;;;;;;2.95;1.75;;;;;;;6.01;69.94;95869.34;4933872;29;20468;-76
2024/03/24 01:58:47;;;;;;;0.85;0.52;;;;;;;5.98;68.87;95865.31;4934002;29;20427;-76
2024/03/24 02:01:15;;;;;;;1.30;0.70;;;;;;;5.95;69.69;95857.91;4933791;29;20056;-76
2024/03/24 02:03:41;;;;;;;2.17;0.55;;;;;;;5.97;69.67;95853.38;4936139;29;20058;-76
2024/03/24 02:06:07;;;;;;;1.52;0.73;;;;;;;5.92;70.30;95846.06;4937481;29;20059;-76
2024/03/24 02:08:33;;;;;;;1.17;0.50;;;;;;;5.97;69.56;95849.00;4937522;29;20059;-76
2024/03/24 02:11:00;;;;;;;1.20;0.80;;;;;;;5.95;70.37;95844.97;4937694;29;20146;-76
2024/03/24 02:13:26;;;;;;;1.10;0.70;;;;;;;5.92;69.77;95845.25;4937649;29;20052;-76
2024/03/24 02:15:53;;;;;;;2.13;0.40;;;;;;;5.89;69.38;95837.84;4936907;29;20428;-76
2024/03/24 02:18:21;;;;;;;0.60;0.50;;;;;;;5.87;70.12;95832.03;4937409;29;20484;-76
2024/03/24 02:20:48;;;;;;;1.27;0.50;;;;;;;5.91;70.74;95841.06;4937496;29;20055;-76
2024/03/24 02:23:15;;;;;;;0.73;0.30;;;;;;;5.98;70.77;95839.44;4937151;29;20523;-76
2024/03/24 02:25:42;;;;;;;0.52;0.47;;;;;;;6.03;70.57;95842.31;4937206;29;20051;-76
2024/03/24 02:28:08;;;;;;;1.58;0.50;;;;;;;6.09;70.98;95839.03;4937329;29;20051;-76
2024/03/24 02:30:34;;;;;;;2.72;0.52;;;;;;;6.15;70.21;95840.13;4937264;29;20700;-76
2024/03/24 02:33:00;;;;;;;1.52;0.30;;;;;;;6.21;69.11;95830.84;4937347;29;20055;-76
2024/03/24 02:35:28;;;;;;;3.45;0.98;;;;;;;6.21;69.93;95833.44;4952749;28;20412;-76
2024/03/24 02:37:53;;;;;;;1.83;0.30;;;;;;;6.22;69.20;95835.88;4936969;29;20063;-76
2024/03/24 02:40:21;;;;;;;0.40;0.30;;;;;;;6.17;69.21;95841.56;4936846;29;20067;-76
2024/03/24 02:42:47;;;;;;;2.30;0.85;;;;;;;6.14;69.34;95835.91;4936858;29;20067;-76
2024/03/24 02:45:14;;;;;;;3.97;1.05;;;;;;;6.12;69.26;95836.13;4936330;29;20059;-76
2024/03/24 02:47:39;;;;;;;0.40;0.40;;;;;;;6.12;68.84;95828.34;4936732;29;20078;-76
2024/03/24 02:50:07;;;;;;;1.73;0.40;;;;;;;6.08;68.59;95829.66;4936871;29;20504;-76
2024/03/24 02:52:32;;;;;;;2.05;0.75;;;;;;;6.07;68.76;95822.06;4936919;29;20459;-76
2024/03/24 02:54:59;;;;;;;2.13;0.55;;;;;;;6.04;69.07;95823.22;4936247;29;20051;-77
2024/03/24 02:57:26;;;;;;;0.60;0.57;;;;;;;6.02;69.73;95824.38;4936583;29;20059;-76
2024/03/24 02:59:53;;;;;;;0.50;0.47;;;;;;;6.00;69.25;95827.13;4936765;29;20067;-76
2024/03/24 03:02:19;;;;;;;0.95;0.50;;;;;;;6.00;69.24;95831.50;4936660;29;20059;-76
2024/03/24 03:04:45;;;;;;;0.32;0.32;;;;;;;5.97;68.50;95824.88;4936614;29;20409;-76
2024/03/24 03:07:11;;;;;;;1.00;0.43;;;;;;;5.95;69.41;95822.47;4936307;29;20092;-76
2024/03/24 03:09:37;;;;;;;2.47;0.40;;;;;;;5.98;69.55;95823.91;4936302;29;20059;-76
2024/03/24 03:12:03;;;;;;;0.82;0.50;;;;;;;6.01;69.46;95833.09;4936407;29;20055;-76
2024/03/24 03:14:32;;;;;;;0.52;0.52;;;;;;;6.03;69.48;95834.53;4935309;29;20579;-76
2024/03/24 03:16:58;;;;;;;1.75;0.52;;;;;;;6.02;69.42;95840.69;4936474;29;20432;-76
2024/03/24 03:19:26;;;;;;;0.35;0.30;;;;;;;6.00;69.31;95837.47;4936450;29;20065;-76
2024/03/24 03:21:52;;;;;;;0.65;0.32;;;;;;;5.95;68.85;95829.44;4936183;29;20062;-76
2024/03/24 03:24:18;;;;;;;1.38;0.60;;;;;;;5.94;69.92;95833.78;4936163;29;20056;-76
2024/03/24 03:26:44;;;;;;;0.82;0.63;;;;;;;6.01;70.72;95833.09;4935999;29;20115;-76
2024/03/24 03:29:11;;;;;;;0.50;0.30;;;;;;;6.03;69.08;95836.31;4935930;29;20055;-76
2024/03/24 03:31:38;;;;;;;0.85;0.40;;;;;;;6.03;69.39;95831.94;4935989;29;20067;-76
2024/03/24 03:34:04;;;;;;;0.93;0.40;;;;;;;6.06;69.90;95836.78;4935833;29;20404;-76
2024/03/24 03:36:30;;;;;;;0.80;0.47;;;;;;;6.07;69.64;95835.81;4935966;29;20074;-76
2024/03/24 03:38:56;;;;;;;1.33;0.43;;;;;;;6.06;68.71;95834.22;4936009;29;20064;-77
2024/03/24 03:41:22;;;;;;;0.50;0.40;;;;;;;6.04;69.40;95823.22;4936049;29;20059;-76
2024/03/24 03:43:49;;;;;;;1.05;0.50;;;;;;;6.04;69.55;95828.41;4935784;29;20051;-76
2024/03/24 03:46:15;;;;;;;1.02;0.30;;;;;;;6.07;70.19;95828.03;4935526;29;20067;-76
2024/03/24 03:48:44;;;;;;;0.30;0.30;;;;;;;6.08;69.94;95828.84;4935754;29;20052;-76
2024/03/24 03:51:17;;;;;;;1.17;0.40;;;;;;;6.11;70.68;95829.31;4935847;29;20451;-76
2024/03/24 03:53:44;;;;;;;2.65;0.60;;;;;;;6.16;70.22;95815.84;4935812;29;20459;-76
2024/03/24 03:56:10;;;;;;;1.88;0.70;;;;;;;6.16;69.59;95816.63;4935217;29;20063;-76
2024/03/24 03:58:36;;;;;;;0.77;0.40;;;;;;;6.17;69.46;95826.03;4935800;29;20486;-76
2024/03/24 04:01:02;;;;;;;1.27;0.70;;;;;;;6.16;69.43;95816.63;4935538;29;20051;-76
2024/03/24 04:03:29;;;;;;;0.68;0.40;;;;;;;6.15;69.27;95809.84;4935293;29;20060;-76
2024/03/24 04:05:56;;;;;;;1.25;0.65;;;;;;;6.14;70.35;95802.25;4935219;29;20055;-76
2024/03/24 04:08:23;;;;;;;1.10;0.50;;;;;;;6.17;70.60;95807.91;4935329;29;20063;-76
2024/03/24 04:10:49;;;;;;;2.28;0.57;;;;;;;6.22;70.32;95809.19;4935444;29;20052;-76
2024/03/24 04:13:15;;;;;;;0.95;0.50;;;;;;;6.21;69.88;95802.38;4935356;29;20051;-76
2024/03/24 04:15:41;;;;;;;0.77;0.30;;;;;;;6.17;68.57;95797.53;4971092;23;20061;-84
2024/03/24 04:18:08;;;;;;;1.55;0.30;;;;;;;6.16;69.88;95793.34;4959698;28;20075;-85
2024/03/24 04:20:35;;;;;;;1.00;0.57;;;;;;;6.18;68.72;95804.31;4960109;28;20055;-86
2024/03/24 04:23:03;;;;;;;0.75;0.55;;;;;;;6.18;70.00;95804.31;4960570;28;20073;-79
2024/03/24 04:25:29;;;;;;;1.08;0.30;;;;;;;6.17;68.28;95801.94;4970355;28;20062;-86
2024/03/24 04:27:56;;;;;;;1.52;0.70;;;;;;;6.09;69.71;95789.84;4978038;28;20050;-81
2024/03/24 04:30:22;;;;;;;1.55;0.50;;;;;;;6.11;70.69;95790.47;4978881;28;20054;-87
2024/03/24 04:32:48;;;;;;;2.08;0.55;;;;;;;6.10;69.69;95799.22;4978847;28;20141;-89
2024/03/24 04:35:14;;;;;;;0.43;0.43;;;;;;;6.09;69.30;95800.19;4978570;28;20507;-80
2024/03/24 04:37:41;;;;;;;1.38;0.43;;;;;;;6.09;70.79;95794.22;4979193;28;20060;-87
2024/03/24 04:40:09;;;;;;;0.75;0.75;;;;;;;6.10;70.80;95799.22;4979012;28;20054;-87
2024/03/24 04:42:35;;;;;;;0.60;0.60;;;;;;;6.12;69.58;95804.22;4978624;28;20050;-85
2024/03/24 04:45:02;;;;;;;1.30;0.45;;;;;;;6.13;70.85;95801.47;4978911;28;20418;-81
2024/03/24 04:47:28;;;;;;;0.88;0.60;;;;;;;6.18;70.77;95795.75;4978930;28;20058;-86
2024/03/24 04:49:54;;;;;;;0.73;0.60;;;;;;;6.21;70.25;95792.84;4978916;28;20430;-82
2024/03/24 04:52:21;;;;;;;1.38;0.68;;;;;;;6.23;70.80;95800.41;4978705;28;20057;-88
2024/03/24 04:54:46;;;;;;;0.65;0.30;;;;;;;6.18;69.67;95788.78;4978373;28;20054;-89
2024/03/24 04:57:16;;;;;;;0.88;0.88;;;;;;;6.13;70.05;95790.31;4978343;28;20077;-85
2024/03/24 04:59:41;;;;;;;1.45;0.40;;;;;;;6.11;70.19;95793.06;4978437;28;20091;-86
2024/03/24 05:02:08;;;;;;;1.65;0.60;;;;;;;6.13;70.52;95795.47;4978978;28;20503;-79
2024/03/24 05:04:35;;;;;;;0.50;0.50;;;;;;;6.18;70.83;95798.34;4978472;28;20058;-79
2024/03/24 05:07:02;;;;;;;0.57;0.57;;;;;;;6.22;70.62;95793.63;4978392;28;20054;-79
2024/03/24 05:09:28;;;;;;;2.15;1.00;;;;;;;6.23;70.17;95797.81;4979022;28;20058;-86
2024/03/24 05:11:54;;;;;;;1.63;0.68;;;;;;;6.25;70.88;95793.28;4978942;28;20051;-84
2024/03/24 05:14:22;;;;;;;0.65;0.52;;;;;;;6.25;69.08;95796.66;4978629;28;20058;-85
2024/03/24 05:16:50;;;;;;;0.55;0.50;;;;;;;6.23;69.98;95792.63;4978560;28;20502;-79
2024/03/24 05:19:16;;;;;;;0.60;0.60;;;;;;;6.19;69.54;95805.16;4978154;28;20062;-85
2024/03/24 05:21:44;;;;;;;1.70;0.70;;;;;;;6.16;69.48;95801.09;4978772;28;20085;-88
2024/03/24 05:24:09;;;;;;;1.55;0.60;;;;;;;6.17;69.60;95801.94;4978050;28;20050;-87
2024/03/24 05:26:36;;;;;;;0.77;0.43;;;;;;;6.18;69.86;95801.72;4978207;28;20062;-83
2024/03/24 05:29:04;;;;;;;0.40;0.40;;;;;;;6.19;69.50;95811.13;4977337;28;20120;-81
2024/03/24 05:31:33;;;;;;;0.60;0.60;;;;;;;6.19;69.23;95805.94;4979259;28;20065;-84
2024/03/24 05:33:59;;;;;;;0.88;0.73;;;;;;;6.21;68.79;95808.38;4978717;28;20054;-79
2024/03/24 05:36:27;;;;;;;0.50;0.50;;;;;;;6.19;68.37;95805.94;4978998;28;20106;-84
2024/03/24 05:38:52;;;;;;;1.10;0.60;;;;;;;6.17;68.70;95807.09;4978867;28;20077;-82
2024/03/24 05:41:19;;;;;;;2.58;0.70;;;;;;;6.17;69.24;95807.91;4978856;28;20058;-80
2024/03/24 05:43:44;;;;;;;2.03;0.80;;;;;;;6.15;69.49;95804.69;4979054;28;20076;-85
2024/03/24 05:46:11;;;;;;;0.80;0.60;;;;;;;6.15;69.91;95815.03;4978831;28;20050;-86
2024/03/24 05:48:38;;;;;;;0.52;0.52;;;;;;;6.13;69.45;95801.47;4979869;28;20062;-88
2024/03/24 05:51:06;;;;;;;3.28;0.80;;;;;;;6.14;69.50;95818.63;4971845;28;20066;-77
2024/03/24 05:53:32;;;;;;;0.68;0.65;;;;;;;6.10;69.07;95817.34;4961852;28;20058;-79
2024/03/24 05:55:59;;;;;;;0.80;0.45;;;;;;;6.06;69.41;95812.69;4963170;28;20086;-77
2024/03/24 05:58:25;;;;;;;1.15;1.05;;;;;;;6.02;70.12;95820.00;4960836;28;20050;-78
2024/03/24 06:00:51;;;;;;;0.95;0.50;;;;;;;5.97;68.88;95823.09;4968940;28;20106;-81
2024/03/24 06:03:17;;;;;;;0.60;0.60;;;;;;;5.93;69.17;95821.00;4981092;28;20058;-81
2024/03/24 06:05:47;;;;;;;0.77;0.40;;;;;;;5.90;68.68;95823.91;4967424;28;20055;-78
2024/03/24 06:08:13;;;;;;;0.98;0.45;;;;;;;5.83;68.72;95823.78;4975892;28;20051;-78
2024/03/24 06:10:42;;;;;;;1.27;0.90;;;;;;;5.73;68.12;95825.81;4980496;28;20054;-83
2024/03/24 06:13:08;;;;;;;0.98;0.70;;;;;;;5.61;69.38;95825.38;4968810;28;20486;-79
2024/03/24 06:15:36;;;;;;;0.85;0.50;;;;;;;5.53;69.97;95826.22;4961459;28;20062;-85
2024/03/24 06:18:04;;;;;;;1.50;0.70;;;;;;;5.52;69.73;95822.00;4961911;28;20066;-86
2024/03/24 06:20:33;;;;;;;0.80;0.40;;;;;;;5.52;70.13;95823.81;4963391;28;20059;-87
2024/03/24 06:23:01;;;;;;;0.50;0.50;;;;;;;5.46;69.78;95830.44;4971389;28;20434;-85
2024/03/24 06:25:28;;;;;;;0.57;0.50;;;;;;;5.44;70.41;95827.22;4966091;28;20062;-88
2024/03/24 06:27:53;;;;;;;1.80;0.80;;;;;;;5.43;71.08;95830.00;4973526;28;20058;-88
2024/03/24 06:30:20;;;;;;;1.08;0.60;;;;;;;5.46;70.75;95829.66;4976049;28;20054;-86
2024/03/24 06:32:46;;;;;;;2.00;0.68;;;;;;;5.50;70.41;95831.72;4984757;28;20054;-86
2024/03/24 06:35:12;;;;;;;1.25;0.60;;;;;;;5.50;70.63;95834.31;4967276;28;20061;-86
2024/03/24 06:37:38;;;;;;;0.85;0.47;;;;;;;5.50;70.69;95836.09;4964560;28;20419;-84
2024/03/24 06:40:09;;;;;;;0.68;0.50;;;;;;;5.45;69.60;95838.41;4967593;28;20051;-85
2024/03/24 06:42:39;;;;;;;1.77;0.60;;;;;;;5.43;69.50;95842.94;4958981;28;20503;-78
2024/03/24 06:45:08;;;;;;;1.23;0.57;;;;;;;5.36;70.50;95835.03;4958635;28;20054;-82
2024/03/24 06:47:34;;;;;;;1.83;0.40;;;;;;;5.34;71.28;95831.81;4964904;28;20043;-88
2024/03/24 06:50:00;;;;;;;0.95;0.52;;;;;;;5.35;70.08;95843.75;4965400;28;20146;-84
2024/03/24 06:52:26;;;;;;;1.80;0.40;;;;;;;5.35;70.67;95844.56;4967778;28;20507;-80
2024/03/24 06:54:53;;;;;;;0.70;0.35;;;;;;;5.40;70.04;95845.84;4983275;28;20065;-83
2024/03/24 06:57:20;;;;;;;1.40;0.50;;;;;;;5.41;70.43;95844.88;4982567;28;20054;-82
2024/03/24 06:59:47;;;;;;;3.10;0.60;;;;;;;5.44;70.47;95849.69;4981117;28;20434;-78
2024/03/24 07:02:13;;;;;;;1.05;0.70;;;;;;;5.47;70.27;95849.38;4979141;28;20061;-82
2024/03/24 07:04:39;;;;;;;0.88;0.70;;;;;;;5.43;70.59;95851.50;4964596;28;20086;-81
2024/03/24 07:07:05;;;;;;;0.70;0.45;;;;;;;5.38;69.94;95848.59;4980594;28;20058;-80
2024/03/24 07:09:32;;;;;;;2.58;0.95;;;;;;;5.28;70.25;95858.31;4979227;28;20060;-79
2024/03/24 07:11:58;;;;;;;2.83;0.77;;;;;;;5.29;70.76;95859.94;4961082;28;20074;-80
2024/03/24 07:14:26;;;;;;;1.58;0.60;;;;;;;5.31;71.03;95865.75;4962146;28;20501;-76
2024/03/24 07:16:51;;;;;;;0.52;0.43;;;;;;;5.37;71.27;95867.66;4962692;28;20062;-78
2024/03/24 07:19:18;;;;;;;1.08;0.50;;;;;;;5.42;70.79;95862.00;4964431;28;20104;-84
2024/03/24 07:21:45;;;;;;;2.22;0.63;;;;;;;5.48;70.78;95875.06;4964499;28;20050;-85
2024/03/24 07:24:11;;;;;;;0.95;0.60;;;;;;;5.52;69.77;95871.16;4965717;28;20050;-80
2024/03/24 07:26:37;;;;;;;2.15;0.60;;;;;;;5.53;69.55;95871.97;4986663;28;20038;-80
2024/03/24 07:29:04;;;;;;;1.05;0.40;;;;;;;5.55;69.42;95875.19;4983922;28;20061;-83
2024/03/24 07:31:31;;;;;;;1.27;0.70;;;;;;;5.57;69.71;95868.06;4975447;28;20054;-85
2024/03/24 07:33:58;;;;;;;1.20;0.70;;;;;;;5.59;69.34;95873.88;4975988;28;20054;-78
2024/03/24 07:36:23;;;;;;;3.47;0.60;;;;;;;5.62;70.39;95883.09;4960093;28;20618;-79
2024/03/24 07:38:50;;;;;;;1.38;0.63;;;;;;;5.65;70.02;95880.97;4966895;28;20066;-78
2024/03/24 07:41:17;;;;;;;1.35;0.60;;;;;;;5.64;68.57;95876.78;4968958;28;20586;-80
2024/03/24 07:43:44;;;;;;;2.90;0.98;;;;;;;5.58;68.55;95880.84;4978584;28;20114;-81
2024/03/24 07:46:09;;;;;;;2.20;1.10;;;;;;;5.59;69.19;95879.06;4976668;28;20058;-81
2024/03/24 07:48:38;;;;;;;1.35;0.80;;;;;;;5.57;69.84;95870.66;4972004;28;20534;-84
2024/03/24 07:51:04;;;;;;;1.52;0.90;;;;;;;5.55;69.91;95882.94;4975585;28;20054;-86
2024/03/24 07:53:31;;;;;;;1.17;0.70;;;;;;;5.54;69.77;95884.75;4978394;28;20054;-78
2024/03/24 07:55:57;;;;;;;3.75;1.08;;;;;;;5.55;69.25;95885.53;4975870;28;20053;-85
2024/03/24 07:58:23;;;;;;;1.38;0.70;;;;;;;5.53;67.96;95880.56;4963144;28;20133;-85
2024/03/24 08:00:50;;;;;;;0.63;0.60;;;;;;;5.56;68.63;95877.63;4976457;28;20054;-88
2024/03/24 08:03:17;;;;;;;1.85;1.10;;;;;;;5.62;68.94;95881.31;4971140;28;20076;-89
2024/03/24 08:05:44;;;;;;;0.93;0.73;;;;;;;5.66;69.85;95879.19;4961580;28;20063;-80
2024/03/24 08:08:11;;;;;;;0.68;0.68;;;;;;;5.64;69.70;95884.56;4962816;28;20065;-87
2024/03/24 08:10:36;;;;;;;3.10;0.82;;;;;;;5.67;69.79;95889.38;4966060;28;20069;-82
2024/03/24 08:13:03;;;;;;;2.05;0.70;;;;;;;5.69;69.54;95877.09;4966954;28;20054;-87
2024/03/24 08:15:29;;;;;;;0.52;0.52;;;;;;;5.77;70.09;95873.63;4981111;28;20054;-89
2024/03/24 08:17:56;;;;;;;1.15;0.70;;;;;;;6.10;69.89;95865.72;4976587;28;20059;-79
2024/03/24 08:20:22;;;;;;;1.98;0.80;;;;;;;6.77;66.47;95859.88;4967255;28;20064;-85
2024/03/24 08:22:51;;;;;;;0.80;0.60;;;;;;;6.90;64.46;95860.06;4985139;28;20058;-84
2024/03/24 08:25:17;;;;;;;0.73;0.50;;;;;;;7.71;63.50;95860.16;4979115;28;20062;-79
2024/03/24 08:27:43;;;;;;;0.80;0.63;;;;;;;8.88;59.35;95861.72;4972025;28;20129;-82
2024/03/24 08:30:10;;;;;;;0.90;0.60;;;;;;;9.90;56.61;95868.06;4971089;28;20063;-83
2024/03/24 08:32:37;;;;;;;1.85;0.70;;;;;;;10.61;55.56;95869.47;4969864;28;20051;-77
2024/03/24 08:35:04;;;;;;;0.60;0.43;;;;;;;10.65;55.16;95861.03;4971289;28;20514;-79
2024/03/24 08:37:30;;;;;;;1.88;0.70;;;;;;;10.64;55.26;95859.41;4967747;28;20050;-79
2024/03/24 08:39:57;;;;;;;1.05;0.55;;;;;;;10.67;54.34;95866.03;4966726;28;20050;-80
2024/03/24 08:42:26;;;;;;;2.00;0.50;;;;;;;10.61;54.76;95859.03;4966927;28;20058;-80
2024/03/24 08:44:52;;;;;;;2.05;0.50;;;;;;;10.50;56.16;95863.03;4965939;28;20416;-80
2024/03/24 08:47:18;;;;;;;0.60;0.60;;;;;;;10.41;54.86;95854.59;4964781;28;20050;-79
2024/03/24 08:49:44;;;;;;;2.05;0.70;;;;;;;10.17;56.88;95858.53;4964360;28;20062;-80
2024/03/24 08:52:11;;;;;;;2.00;0.45;;;;;;;10.19;57.23;95860.91;4965022;28;20054;-78
2024/03/24 08:54:36;;;;;;;1.65;0.70;;;;;;;10.29;57.23;95849.16;4964466;28;20082;-78
2024/03/24 08:57:04;;;;;;;0.60;0.35;;;;;;;10.28;57.03;95854.53;4964670;28;20506;-79
2024/03/24 08:59:30;;;;;;;0.95;0.68;;;;;;;10.20;56.70;95858.13;4965105;28;20430;-78
2024/03/24 09:01:57;;;;;;;0.73;0.50;;;;;;;10.00;55.79;95857.28;4966443;28;20055;-80
2024/03/24 09:04:22;;;;;;;0.45;0.45;;;;;;;9.80;56.69;95850.19;4965622;28;20051;-78
2024/03/24 09:06:49;;;;;;;0.95;0.77;;;;;;;9.64;56.95;95855.72;4969113;28;20051;-78
2024/03/24 09:09:15;;;;;;;1.10;0.60;;;;;;;9.44;55.45;95845.22;4967082;28;20062;-79
2024/03/24 09:11:41;;;;;;;1.98;0.68;;;;;;;9.29;58.32;95845.34;4966659;28;20057;-78
2024/03/24 09:14:09;;;;;;;0.70;0.60;;;;;;;9.21;57.79;95851.53;4967048;28;20050;-83
2024/03/24 09:16:35;;;;;;;3.15;0.70;;;;;;;9.17;58.04;95849.50;4967497;28;20423;-78
2024/03/24 09:19:02;;;;;;;3.03;0.88;;;;;;;9.17;57.74;95855.50;4966220;28;20506;-79
2024/03/24 09:21:29;;;;;;;0.70;0.60;;;;;;;9.15;59.31;95856.69;4966238;28;20051;-80
2024/03/24 09:23:54;;;;;;;2.33;0.75;;;;;;;9.19;59.18;95860.53;4965121;28;20063;-78
2024/03/24 09:26:21;;;;;;;2.90;0.60;;;;;;;9.22;59.25;95865.34;4964027;28;20125;-77
2024/03/24 09:28:47;;;;;;;0.57;0.57;;;;;;;9.20;57.88;95856.91;4964674;28;20055;-77
2024/03/24 09:31:15;;;;;;;1.45;0.90;;;;;;;9.20;59.73;95867.31;4964228;28;20066;-79
2024/03/24 09:33:41;;;;;;;2.60;0.60;;;;;;;9.27;59.87;95857.75;4966090;28;20047;-78
2024/03/24 09:36:08;;;;;;;1.40;0.80;;;;;;;9.27;58.63;95870.75;4968107;28;20446;-80
2024/03/24 09:38:33;;;;;;;1.10;1.00;;;;;;;9.11;58.44;95865.88;4967195;28;20050;-78
2024/03/24 09:41:00;;;;;;;0.90;0.90;;;;;;;8.93;58.38;95867.16;4965148;28;20070;-79
2024/03/24 09:43:26;;;;;;;2.22;0.82;;;;;;;8.85;59.42;95865.50;4964642;28;20495;-80
2024/03/24 09:45:53;;;;;;;2.20;0.80;;;;;;;8.81;59.36;95873.84;4965043;28;20081;-78
2024/03/24 09:48:21;;;;;;;1.08;0.98;;;;;;;8.69;59.15;95870.16;4967317;28;20511;-80
2024/03/24 09:50:47;;;;;;;1.33;1.00;;;;;;;8.63;59.91;95871.72;4967293;28;20061;-79
2024/03/24 09:53:15;;;;;;;1.35;0.95;;;;;;;8.58;60.55;95874.06;4968550;28;20062;-80
2024/03/24 09:55:42;;;;;;;1.38;0.80;;;;;;;8.46;59.10;95871.16;4967634;28;20063;-78
2024/03/24 09:58:09;;;;;;;3.15;0.85;;;;;;;8.33;59.21;95878.78;4967867;28;20063;-80
2024/03/24 10:00:36;;;;;;;2.83;1.23;;;;;;;8.27;60.37;95866.56;4969250;28;20047;-82
2024/03/24 10:03:02;;;;;;;2.00;0.93;;;;;;;8.27;60.17;95866.56;4969768;28;20054;-78
2024/03/24 10:05:32;;;;;;;1.13;0.80;;;;;;;8.31;59.95;95859.97;4968783;28;20491;-79
2024/03/24 10:07:59;;;;;;;1.20;0.90;;;;;;;8.42;59.51;95864.75;4966125;28;20055;-78
2024/03/24 10:10:25;;;;;;;2.88;1.00;;;;;;;8.55;60.23;95856.22;4977421;28;20051;-78
2024/03/24 10:12:52;;;;;;;2.55;1.35;;;;;;;8.73;59.02;95854.00;4965757;28;20057;-78
2024/03/24 10:15:20;;;;;;;3.15;1.42;;;;;;;8.73;58.48;95861.00;5023816;23;20547;-80
2024/03/24 10:17:46;;;;;;;3.38;1.67;;;;;;;8.66;59.79;95861.75;5006795;28;20050;-76
2024/03/24 10:20:13;;;;;;;1.40;0.82;;;;;;;8.65;59.55;95857.53;4995788;28;20096;-77
2024/03/24 10:22:53;;;;;;;1.05;0.93;;;;;;;8.64;60.60;95863.72;4995204;28;20645;-76
2024/03/24 10:25:23;;;;;;;2.72;1.10;;;;;;;8.66;59.07;95866.16;4989781;28;20061;-77
2024/03/24 10:27:50;;;;;;;2.33;1.27;;;;;;;8.61;59.23;95861.47;4977651;28;20046;-77
2024/03/24 10:30:17;;;;;;;2.10;1.33;;;;;;;8.57;60.01;95857.69;4978521;28;20529;-76
2024/03/24 10:32:43;;;;;;;2.70;1.10;;;;;;;8.56;60.45;95855.25;4979056;28;20065;-78
2024/03/24 10:35:17;;;;;;;2.05;1.20;;;;;;;8.58;62.17;95859.28;4985842;28;20066;-80
2024/03/24 11:39:51;;;;;;;3.30;1.97;;;;;;;7.14;64.02;95858.22;5779783;23;20311;-81
2024/03/24 11:42:19;;;;;;;5.68;2.15;;;;;;;7.16;65.35;95848.47;4981940;28;20061;-80
2024/03/24 11:47:52;;;;;;;4.38;1.98;;;;;;;7.30;65.93;95849.47;5301825;23;20045;-81
2024/03/24 11:53:16;;;;;;;2.88;1.80;;;;;;;7.32;64.22;95839.72;5867158;23;20085;-81
2024/03/24 12:21:02;;;;;;;3.70;1.38;;;;;;;7.46;64.18;95814.75;4980475;28;20051;-79
2024/03/24 12:23:29;;;;;;;3.33;1.85;;;;;;;7.50;63.52;95810.78;4952783;28;20102;-79
2024/03/24 12:26:05;;;;;;;5.60;2.25;;;;;;;7.55;64.31;95809.25;4954930;28;20063;-81
2024/03/24 12:38:39;;;;;;;1.67;1.30;;;;;;;7.95;63.66;95795.91;5092046;23;20058;-81
2024/03/24 12:41:06;;;;;;;5.00;1.55;;;;;;;7.98;63.05;95790.31;5285901;23;20054;-81
2024/03/24 12:43:32;;;;;;;2.92;1.55;;;;;;;7.96;63.75;95803.53;5275785;23;20060;-81
2024/03/24 12:45:59;;;;;;;2.92;1.55;;;;;;;7.95;63.21;95795.91;4969139;28;20431;-81
2024/03/24 12:56:45;;;;;;;3.40;1.60;;;;;;;7.89;62.72;95796.63;4965326;28;20094;-81
2024/03/24 13:05:08;;;;;;;2.30;1.30;;;;;;;7.61;63.36;95787.78;5281075;23;20093;-81
2024/03/24 13:07:43;;;;;;;1.48;1.23;;;;;;;7.59;64.11;95789.75;4976719;28;20057;-80
2024/03/24 13:10:17;;;;;;;3.17;1.50;;;;;;;7.58;64.66;95805.50;4960090;28;20054;-80
2024/03/24 13:30:58;;;;;;;3.22;1.98;;;;;;;7.16;67.42;95810.38;4999312;28;20054;-80
2024/03/24 13:33:26;;;;;;;3.47;1.98;;;;;;;7.17;65.84;95808.56;4996347;28;20050;-82
2024/03/24 13:35:59;;;;;;;1.83;1.42;;;;;;;7.16;66.05;95825.94;4984341;28;20054;-80
2024/03/24 13:41:21;;;;;;;3.03;1.55;;;;;;;6.99;65.88;95835.66;5057461;23;20064;-80
2024/03/24 14:07:33;;;;;;;3.47;1.95;;;;;;;6.04;68.04;95858.66;4982930;28;20062;-80
2024/03/24 14:10:04;;;;;;;4.30;1.30;;;;;;;6.10;67.65;95837.25;4985002;28;20035;-80
2024/03/24 14:12:36;;;;;;;1.15;1.02;;;;;;;6.10;68.63;95835.47;4986101;28;20054;-80
2024/03/24 14:15:10;;;;;;;2.97;1.90;;;;;;;6.13;69.59;95840.31;4985405;28;20039;-79
2024/03/24 14:17:48;;;;;;;2.20;1.42;;;;;;;6.18;69.31;95838.00;4985292;28;20043;-80
2024/03/24 14:20:18;;;;;;;1.25;1.13;;;;;;;6.21;69.14;95823.09;4985902;28;20040;-80
2024/03/24 14:22:56;;;;;;;1.20;0.82;;;;;;;6.24;69.18;95825.34;5083609;23;20069;-80